sensor_id;sensor_type;location;lat;lon;timestamp;P1;durP1;ratioP1;P2;durP2;ratioP2
27889;SDS011;15238;49.082;9.102;2022-08-30T00:02:09;5.57;;;1.45;;
27889;SDS011;15238;49.082;9.102;2022-08-30T00:04:09;3.78;;;1.58;;
27889;SDS011;15238;49.082;9.102;2022-08-30T00:06:10;4.00;;;1.73;;
27889;SDS011;15238;49.082;9.102;2022-08-30T00:08:12;4.47;;;1.85;;
27889;SDS011;15238;49.082;9.102;2022-08-30T00:10:13;2.55;;;1.80;;
27889;SDS011;15238;49.082;9.102;2022-08-30T00:12:15;2.72;;;1.65;;
27889;SDS011;15238;49.082;9.102;2022-08-30T00:14:15;3.42;;;1.63;;
27889;SDS011;15238;49.082;9.102;2022-08-30T00:16:16;6.90;;;1.77;;
27889;SDS011;15238;49.082;9.102;2022-08-30T00:18:18;9.30;;;2.00;;
27889;SDS011;15238;49.082;9.102;2022-08-30T00:20:21;2.92;;;1.52;;
27889;SDS011;15238;49.082;9.102;2022-08-30T00:22:25;5.93;;;2.15;;
27889;SDS011;15238;49.082;9.102;2022-08-30T00:24:25;5.47;;;1.77;;
27889;SDS011;15238;49.082;9.102;2022-08-30T00:26:26;5.25;;;1.85;;
27889;SDS011;15238;49.082;9.102;2022-08-30T00:28:27;6.72;;;2.45;;
27889;SDS011;15238;49.082;9.102;2022-08-30T00:30:28;4.10;;;1.95;;
27889;SDS011;15238;49.082;9.102;2022-08-30T00:32:28;3.40;;;1.80;;
27889;SDS011;15238;49.082;9.102;2022-08-30T00:34:29;2.75;;;1.73;;
27889;SDS011;15238;49.082;9.102;2022-08-30T00:36:32;6.07;;;1.88;;
27889;SDS011;15238;49.082;9.102;2022-08-30T00:38:33;3.50;;;1.58;;
27889;SDS011;15238;49.082;9.102;2022-08-30T00:40:33;3.50;;;1.90;;
27889;SDS011;15238;49.082;9.102;2022-08-30T00:42:35;8.40;;;2.08;;
27889;SDS011;15238;49.082;9.102;2022-08-30T00:44:35;4.85;;;2.08;;
27889;SDS011;15238;49.082;9.102;2022-08-30T00:46:36;5.28;;;1.98;;
27889;SDS011;15238;49.082;9.102;2022-08-30T00:48:38;6.53;;;1.65;;
27889;SDS011;15238;49.082;9.102;2022-08-30T00:50:43;5.90;;;1.98;;
27889;SDS011;15238;49.082;9.102;2022-08-30T00:52:48;4.63;;;1.67;;
27889;SDS011;15238;49.082;9.102;2022-08-30T00:54:52;2.95;;;1.65;;
27889;SDS011;15238;49.082;9.102;2022-08-30T00:56:53;9.02;;;1.88;;
27889;SDS011;15238;49.082;9.102;2022-08-30T00:58:55;3.03;;;1.70;;
27889;SDS011;15238;49.082;9.102;2022-08-30T01:00:58;3.25;;;1.73;;
27889;SDS011;15238;49.082;9.102;2022-08-30T01:03:00;4.03;;;2.10;;
27889;SDS011;15238;49.082;9.102;2022-08-30T01:05:01;6.82;;;1.90;;
27889;SDS011;15238;49.082;9.102;2022-08-30T01:07:03;4.78;;;2.00;;
27889;SDS011;15238;49.082;9.102;2022-08-30T01:09:04;5.28;;;1.90;;
27889;SDS011;15238;49.082;9.102;2022-08-30T01:11:05;4.05;;;1.50;;
27889;SDS011;15238;49.082;9.102;2022-08-30T01:13:06;6.20;;;1.90;;
27889;SDS011;15238;49.082;9.102;2022-08-30T01:15:08;6.80;;;1.98;;
27889;SDS011;15238;49.082;9.102;2022-08-30T01:17:10;5.63;;;1.52;;
27889;SDS011;15238;49.082;9.102;2022-08-30T01:21:40;6.45;;;2.08;;
27889;SDS011;15238;49.082;9.102;2022-08-30T01:25:47;5.80;;;2.00;;
27889;SDS011;15238;49.082;9.102;2022-08-30T01:27:51;4.65;;;1.42;;
27889;SDS011;15238;49.082;9.102;2022-08-30T01:29:55;4.63;;;1.75;;
27889;SDS011;15238;49.082;9.102;2022-08-30T01:31:57;5.47;;;1.83;;
27889;SDS011;15238;49.082;9.102;2022-08-30T01:33:58;4.78;;;1.70;;
27889;SDS011;15238;49.082;9.102;2022-08-30T01:36:01;6.88;;;1.63;;
27889;SDS011;15238;49.082;9.102;2022-08-30T01:38:04;5.30;;;1.98;;
27889;SDS011;15238;49.082;9.102;2022-08-30T01:40:06;4.47;;;1.80;;
27889;SDS011;15238;49.082;9.102;2022-08-30T01:42:07;6.93;;;1.60;;
27889;SDS011;15238;49.082;9.102;2022-08-30T01:44:08;5.30;;;1.85;;
27889;SDS011;15238;49.082;9.102;2022-08-30T01:46:11;8.77;;;2.10;;
27889;SDS011;15238;49.082;9.102;2022-08-30T01:48:12;4.38;;;2.20;;
27889;SDS011;15238;49.082;9.102;2022-08-30T01:50:13;4.45;;;1.77;;
27889;SDS011;15238;49.082;9.102;2022-08-30T01:52:14;2.55;;;1.88;;
27889;SDS011;15238;49.082;9.102;2022-08-30T01:54:15;5.35;;;2.15;;
27889;SDS011;15238;49.082;9.102;2022-08-30T01:56:16;6.95;;;3.13;;
27889;SDS011;15238;49.082;9.102;2022-08-30T01:58:17;3.65;;;2.50;;
27889;SDS011;15238;49.082;9.102;2022-08-30T02:00:18;6.35;;;1.85;;
27889;SDS011;15238;49.082;9.102;2022-08-30T02:02:20;4.18;;;1.75;;
27889;SDS011;15238;49.082;9.102;2022-08-30T02:04:24;5.95;;;2.35;;
27889;SDS011;15238;49.082;9.102;2022-08-30T02:06:25;4.60;;;1.88;;
27889;SDS011;15238;49.082;9.102;2022-08-30T02:08:26;4.82;;;2.00;;
27889;SDS011;15238;49.082;9.102;2022-08-30T02:10:27;8.48;;;2.15;;
27889;SDS011;15238;49.082;9.102;2022-08-30T02:12:28;7.80;;;1.83;;
27889;SDS011;15238;49.082;9.102;2022-08-30T02:14:29;6.10;;;2.10;;
27889;SDS011;15238;49.082;9.102;2022-08-30T02:16:29;4.97;;;2.10;;
27889;SDS011;15238;49.082;9.102;2022-08-30T02:18:31;5.63;;;1.90;;
27889;SDS011;15238;49.082;9.102;2022-08-30T02:20:32;2.92;;;1.73;;
27889;SDS011;15238;49.082;9.102;2022-08-30T02:22:33;4.65;;;2.08;;
27889;SDS011;15238;49.082;9.102;2022-08-30T02:24:34;7.05;;;1.83;;
27889;SDS011;15238;49.082;9.102;2022-08-30T02:26:34;8.13;;;2.10;;
27889;SDS011;15238;49.082;9.102;2022-08-30T02:28:35;5.50;;;1.73;;
27889;SDS011;15238;49.082;9.102;2022-08-30T02:30:36;2.95;;;2.00;;
27889;SDS011;15238;49.082;9.102;2022-08-30T02:32:37;4.40;;;1.70;;
27889;SDS011;15238;49.082;9.102;2022-08-30T02:34:37;6.25;;;1.77;;
27889;SDS011;15238;49.082;9.102;2022-08-30T02:36:38;3.30;;;1.90;;
27889;SDS011;15238;49.082;9.102;2022-08-30T02:38:40;5.40;;;2.05;;
27889;SDS011;15238;49.082;9.102;2022-08-30T02:40:41;4.15;;;2.08;;
27889;SDS011;15238;49.082;9.102;2022-08-30T02:42:43;5.57;;;1.90;;
27889;SDS011;15238;49.082;9.102;2022-08-30T02:44:43;7.57;;;2.47;;
27889;SDS011;15238;49.082;9.102;2022-08-30T02:46:44;5.95;;;2.22;;
27889;SDS011;15238;49.082;9.102;2022-08-30T02:48:44;5.80;;;1.83;;
27889;SDS011;15238;49.082;9.102;2022-08-30T02:50:46;4.25;;;2.00;;
27889;SDS011;15238;49.082;9.102;2022-08-30T02:52:48;6.00;;;2.33;;
27889;SDS011;15238;49.082;9.102;2022-08-30T02:54:49;6.05;;;2.67;;
27889;SDS011;15238;49.082;9.102;2022-08-30T02:56:49;4.95;;;1.75;;
27889;SDS011;15238;49.082;9.102;2022-08-30T02:58:50;3.65;;;1.95;;
27889;SDS011;15238;49.082;9.102;2022-08-30T03:00:51;4.53;;;2.00;;
27889;SDS011;15238;49.082;9.102;2022-08-30T03:02:51;6.07;;;2.50;;
27889;SDS011;15238;49.082;9.102;2022-08-30T03:04:52;5.72;;;1.88;;
27889;SDS011;15238;49.082;9.102;2022-08-30T03:06:52;4.15;;;2.20;;
27889;SDS011;15238;49.082;9.102;2022-08-30T03:08:53;3.65;;;1.85;;
27889;SDS011;15238;49.082;9.102;2022-08-30T03:10:54;3.80;;;1.80;;
27889;SDS011;15238;49.082;9.102;2022-08-30T03:12:56;3.38;;;1.95;;
27889;SDS011;15238;49.082;9.102;2022-08-30T03:14:56;4.15;;;2.13;;
27889;SDS011;15238;49.082;9.102;2022-08-30T03:16:57;5.13;;;1.90;;
27889;SDS011;15238;49.082;9.102;2022-08-30T03:18:58;4.38;;;1.73;;
27889;SDS011;15238;49.082;9.102;2022-08-30T03:20:58;5.82;;;2.40;;
27889;SDS011;15238;49.082;9.102;2022-08-30T03:22:59;6.45;;;2.30;;
27889;SDS011;15238;49.082;9.102;2022-08-30T03:24:59;7.63;;;1.98;;
27889;SDS011;15238;49.082;9.102;2022-08-30T03:27:03;4.70;;;1.92;;
27889;SDS011;15238;49.082;9.102;2022-08-30T03:29:04;8.23;;;2.03;;
27889;SDS011;15238;49.082;9.102;2022-08-30T03:31:05;5.07;;;1.92;;
27889;SDS011;15238;49.082;9.102;2022-08-30T03:33:05;5.35;;;1.98;;
27889;SDS011;15238;49.082;9.102;2022-08-30T03:35:06;3.67;;;1.92;;
27889;SDS011;15238;49.082;9.102;2022-08-30T03:37:07;6.03;;;2.22;;
27889;SDS011;15238;49.082;9.102;2022-08-30T03:39:08;8.75;;;1.92;;
27889;SDS011;15238;49.082;9.102;2022-08-30T03:41:09;8.07;;;2.25;;
27889;SDS011;15238;49.082;9.102;2022-08-30T03:43:10;5.70;;;2.50;;
27889;SDS011;15238;49.082;9.102;2022-08-30T03:45:11;6.00;;;2.28;;
27889;SDS011;15238;49.082;9.102;2022-08-30T03:47:13;5.82;;;2.40;;
27889;SDS011;15238;49.082;9.102;2022-08-30T03:49:14;5.55;;;2.40;;
27889;SDS011;15238;49.082;9.102;2022-08-30T03:51:14;8.15;;;2.70;;
27889;SDS011;15238;49.082;9.102;2022-08-30T03:53:15;6.32;;;2.30;;
27889;SDS011;15238;49.082;9.102;2022-08-30T03:55:15;7.03;;;2.63;;
27889;SDS011;15238;49.082;9.102;2022-08-30T03:57:16;7.57;;;2.60;;
27889;SDS011;15238;49.082;9.102;2022-08-30T03:59:17;10.15;;;2.47;;
27889;SDS011;15238;49.082;9.102;2022-08-30T04:01:17;6.47;;;2.15;;
27889;SDS011;15238;49.082;9.102;2022-08-30T04:03:18;4.30;;;2.28;;
27889;SDS011;15238;49.082;9.102;2022-08-30T04:05:24;4.65;;;2.55;;
27889;SDS011;15238;49.082;9.102;2022-08-30T04:07:26;7.22;;;2.40;;
27889;SDS011;15238;49.082;9.102;2022-08-30T04:09:26;4.82;;;2.65;;
27889;SDS011;15238;49.082;9.102;2022-08-30T04:11:27;7.25;;;2.60;;
27889;SDS011;15238;49.082;9.102;2022-08-30T04:13:28;7.15;;;2.22;;
27889;SDS011;15238;49.082;9.102;2022-08-30T04:15:28;5.07;;;2.58;;
27889;SDS011;15238;49.082;9.102;2022-08-30T04:17:29;7.18;;;2.22;;
27889;SDS011;15238;49.082;9.102;2022-08-30T04:19:29;5.75;;;2.42;;
27889;SDS011;15238;49.082;9.102;2022-08-30T04:21:30;4.70;;;2.22;;
27889;SDS011;15238;49.082;9.102;2022-08-30T04:23:31;5.32;;;2.17;;
27889;SDS011;15238;49.082;9.102;2022-08-30T04:25:35;6.25;;;2.58;;
27889;SDS011;15238;49.082;9.102;2022-08-30T04:27:36;8.13;;;2.42;;
27889;SDS011;15238;49.082;9.102;2022-08-30T04:29:37;5.15;;;2.35;;
27889;SDS011;15238;49.082;9.102;2022-08-30T04:31:37;11.57;;;2.70;;
27889;SDS011;15238;49.082;9.102;2022-08-30T04:33:38;6.28;;;2.65;;
27889;SDS011;15238;49.082;9.102;2022-08-30T04:35:40;4.15;;;2.00;;
27889;SDS011;15238;49.082;9.102;2022-08-30T04:37:42;8.43;;;2.60;;
27889;SDS011;15238;49.082;9.102;2022-08-30T04:39:43;6.20;;;2.28;;
27889;SDS011;15238;49.082;9.102;2022-08-30T04:41:45;6.72;;;2.30;;
27889;SDS011;15238;49.082;9.102;2022-08-30T04:43:46;8.90;;;2.83;;
27889;SDS011;15238;49.082;9.102;2022-08-30T04:45:49;6.93;;;2.15;;
27889;SDS011;15238;49.082;9.102;2022-08-30T04:47:51;4.47;;;2.15;;
27889;SDS011;15238;49.082;9.102;2022-08-30T04:49:51;6.68;;;2.00;;
27889;SDS011;15238;49.082;9.102;2022-08-30T04:51:52;6.38;;;2.25;;
27889;SDS011;15238;49.082;9.102;2022-08-30T04:53:53;6.75;;;2.10;;
27889;SDS011;15238;49.082;9.102;2022-08-30T04:55:53;6.35;;;2.40;;
27889;SDS011;15238;49.082;9.102;2022-08-30T04:57:54;4.22;;;2.47;;
27889;SDS011;15238;49.082;9.102;2022-08-30T04:59:55;5.95;;;2.60;;
27889;SDS011;15238;49.082;9.102;2022-08-30T05:01:56;6.22;;;2.38;;
27889;SDS011;15238;49.082;9.102;2022-08-30T05:03:56;6.18;;;3.42;;
27889;SDS011;15238;49.082;9.102;2022-08-30T05:05:58;5.60;;;2.42;;
27889;SDS011;15238;49.082;9.102;2022-08-30T05:07:58;6.38;;;2.58;;
27889;SDS011;15238;49.082;9.102;2022-08-30T05:09:59;7.55;;;2.35;;
27889;SDS011;15238;49.082;9.102;2022-08-30T05:12:00;7.53;;;2.25;;
27889;SDS011;15238;49.082;9.102;2022-08-30T05:14:00;4.70;;;2.55;;
27889;SDS011;15238;49.082;9.102;2022-08-30T05:16:01;5.28;;;2.13;;
27889;SDS011;15238;49.082;9.102;2022-08-30T05:18:03;3.17;;;1.90;;
27889;SDS011;15238;49.082;9.102;2022-08-30T05:20:04;7.53;;;2.45;;
27889;SDS011;15238;49.082;9.102;2022-08-30T05:22:06;9.77;;;2.25;;
27889;SDS011;15238;49.082;9.102;2022-08-30T05:24:07;10.75;;;2.78;;
27889;SDS011;15238;49.082;9.102;2022-08-30T05:26:09;6.75;;;2.10;;
27889;SDS011;15238;49.082;9.102;2022-08-30T05:28:15;5.55;;;2.38;;
27889;SDS011;15238;49.082;9.102;2022-08-30T05:30:16;6.38;;;2.55;;
27889;SDS011;15238;49.082;9.102;2022-08-30T05:32:17;8.95;;;2.30;;
27889;SDS011;15238;49.082;9.102;2022-08-30T05:34:18;6.70;;;2.17;;
27889;SDS011;15238;49.082;9.102;2022-08-30T05:36:20;4.47;;;2.42;;
27889;SDS011;15238;49.082;9.102;2022-08-30T05:38:22;3.50;;;2.13;;
27889;SDS011;15238;49.082;9.102;2022-08-30T05:40:23;7.13;;;2.22;;
27889;SDS011;15238;49.082;9.102;2022-08-30T05:42:23;10.02;;;3.00;;
27889;SDS011;15238;49.082;9.102;2022-08-30T05:44:24;7.93;;;2.60;;
27889;SDS011;15238;49.082;9.102;2022-08-30T05:46:26;5.38;;;2.20;;
27889;SDS011;15238;49.082;9.102;2022-08-30T05:48:32;8.68;;;2.50;;
27889;SDS011;15238;49.082;9.102;2022-08-30T05:50:33;7.72;;;2.70;;
27889;SDS011;15238;49.082;9.102;2022-08-30T05:52:34;5.05;;;2.03;;
27889;SDS011;15238;49.082;9.102;2022-08-30T05:54:35;10.48;;;2.58;;
27889;SDS011;15238;49.082;9.102;2022-08-30T05:56:37;4.90;;;2.42;;
27889;SDS011;15238;49.082;9.102;2022-08-30T05:58:38;12.45;;;3.20;;
27889;SDS011;15238;49.082;9.102;2022-08-30T06:00:39;7.80;;;2.72;;
27889;SDS011;15238;49.082;9.102;2022-08-30T06:02:40;6.85;;;2.47;;
27889;SDS011;15238;49.082;9.102;2022-08-30T06:04:41;6.35;;;2.38;;
27889;SDS011;15238;49.082;9.102;2022-08-30T06:06:42;5.65;;;2.83;;
27889;SDS011;15238;49.082;9.102;2022-08-30T06:08:43;7.40;;;2.50;;
27889;SDS011;15238;49.082;9.102;2022-08-30T06:10:47;8.88;;;2.65;;
27889;SDS011;15238;49.082;9.102;2022-08-30T06:12:47;9.15;;;2.33;;
27889;SDS011;15238;49.082;9.102;2022-08-30T06:14:48;8.70;;;2.53;;
27889;SDS011;15238;49.082;9.102;2022-08-30T06:16:49;9.05;;;2.40;;
27889;SDS011;15238;49.082;9.102;2022-08-30T06:18:56;5.30;;;2.40;;
27889;SDS011;15238;49.082;9.102;2022-08-30T06:20:57;5.80;;;2.55;;
27889;SDS011;15238;49.082;9.102;2022-08-30T06:22:58;7.80;;;2.70;;
27889;SDS011;15238;49.082;9.102;2022-08-30T06:24:58;6.78;;;2.67;;
27889;SDS011;15238;49.082;9.102;2022-08-30T06:26:59;6.43;;;2.70;;
27889;SDS011;15238;49.082;9.102;2022-08-30T06:28:59;9.85;;;3.05;;
27889;SDS011;15238;49.082;9.102;2022-08-30T06:31:00;6.20;;;2.78;;
27889;SDS011;15238;49.082;9.102;2022-08-30T06:33:04;8.35;;;2.88;;
27889;SDS011;15238;49.082;9.102;2022-08-30T06:35:05;6.47;;;2.88;;
27889;SDS011;15238;49.082;9.102;2022-08-30T06:37:07;9.98;;;2.78;;
27889;SDS011;15238;49.082;9.102;2022-08-30T06:39:07;11.65;;;3.75;;
27889;SDS011;15238;49.082;9.102;2022-08-30T06:41:10;6.50;;;2.88;;
27889;SDS011;15238;49.082;9.102;2022-08-30T06:43:12;10.07;;;2.90;;
27889;SDS011;15238;49.082;9.102;2022-08-30T06:45:13;5.03;;;2.88;;
27889;SDS011;15238;49.082;9.102;2022-08-30T06:47:15;10.10;;;2.80;;
27889;SDS011;15238;49.082;9.102;2022-08-30T06:49:15;11.13;;;2.60;;
27889;SDS011;15238;49.082;9.102;2022-08-30T06:51:20;8.43;;;2.97;;
27889;SDS011;15238;49.082;9.102;2022-08-30T06:53:22;10.27;;;2.65;;
27889;SDS011;15238;49.082;9.102;2022-08-30T06:55:23;6.35;;;3.20;;
27889;SDS011;15238;49.082;9.102;2022-08-30T06:57:24;7.95;;;3.00;;
27889;SDS011;15238;49.082;9.102;2022-08-30T06:59:25;9.48;;;2.97;;
27889;SDS011;15238;49.082;9.102;2022-08-30T07:01:27;9.07;;;3.47;;
27889;SDS011;15238;49.082;9.102;2022-08-30T07:03:28;5.93;;;3.00;;
27889;SDS011;15238;49.082;9.102;2022-08-30T07:05:29;8.45;;;2.80;;
27889;SDS011;15238;49.082;9.102;2022-08-30T07:07:29;7.20;;;3.28;;
27889;SDS011;15238;49.082;9.102;2022-08-30T07:09:30;6.68;;;3.30;;
27889;SDS011;15238;49.082;9.102;2022-08-30T07:11:34;8.32;;;2.85;;
27889;SDS011;15238;49.082;9.102;2022-08-30T07:13:35;7.25;;;3.10;;
27889;SDS011;15238;49.082;9.102;2022-08-30T07:15:39;7.03;;;2.88;;
27889;SDS011;15238;49.082;9.102;2022-08-30T07:17:43;7.78;;;3.13;;
27889;SDS011;15238;49.082;9.102;2022-08-30T07:20:03;8.73;;;3.00;;
27889;SDS011;15238;49.082;9.102;2022-08-30T07:22:04;6.88;;;3.38;;
27889;SDS011;15238;49.082;9.102;2022-08-30T07:24:05;5.68;;;3.05;;
27889;SDS011;15238;49.082;9.102;2022-08-30T07:26:07;7.80;;;3.10;;
27889;SDS011;15238;49.082;9.102;2022-08-30T07:28:12;7.68;;;3.03;;
27889;SDS011;15238;49.082;9.102;2022-08-30T07:30:13;7.68;;;2.85;;
27889;SDS011;15238;49.082;9.102;2022-08-30T07:32:14;8.43;;;3.10;;
27889;SDS011;15238;49.082;9.102;2022-08-30T07:34:14;9.35;;;3.17;;
27889;SDS011;15238;49.082;9.102;2022-08-30T07:36:15;13.02;;;3.25;;
27889;SDS011;15238;49.082;9.102;2022-08-30T07:38:17;10.07;;;2.88;;
27889;SDS011;15238;49.082;9.102;2022-08-30T07:40:17;10.00;;;3.38;;
27889;SDS011;15238;49.082;9.102;2022-08-30T07:42:18;6.40;;;2.95;;
27889;SDS011;15238;49.082;9.102;2022-08-30T07:44:19;10.10;;;3.15;;
27889;SDS011;15238;49.082;9.102;2022-08-30T07:46:20;10.55;;;3.42;;
27889;SDS011;15238;49.082;9.102;2022-08-30T07:48:21;13.43;;;3.50;;
27889;SDS011;15238;49.082;9.102;2022-08-30T07:50:22;13.65;;;3.47;;
27889;SDS011;15238;49.082;9.102;2022-08-30T07:52:22;13.50;;;3.15;;
27889;SDS011;15238;49.082;9.102;2022-08-30T07:54:23;22.73;;;4.20;;
27889;SDS011;15238;49.082;9.102;2022-08-30T07:56:23;11.13;;;3.10;;
27889;SDS011;15238;49.082;9.102;2022-08-30T07:58:24;7.40;;;2.97;;
27889;SDS011;15238;49.082;9.102;2022-08-30T08:00:25;11.32;;;2.70;;
27889;SDS011;15238;49.082;9.102;2022-08-30T08:02:25;11.57;;;3.03;;
27889;SDS011;15238;49.082;9.102;2022-08-30T08:04:26;11.02;;;3.55;;
27889;SDS011;15238;49.082;9.102;2022-08-30T08:06:27;5.30;;;3.28;;
27889;SDS011;15238;49.082;9.102;2022-08-30T08:08:28;9.13;;;3.40;;
27889;SDS011;15238;49.082;9.102;2022-08-30T08:10:29;7.90;;;3.03;;
27889;SDS011;15238;49.082;9.102;2022-08-30T08:12:29;10.25;;;3.40;;
27889;SDS011;15238;49.082;9.102;2022-08-30T08:14:30;5.45;;;3.15;;
27889;SDS011;15238;49.082;9.102;2022-08-30T08:16:31;6.30;;;3.15;;
27889;SDS011;15238;49.082;9.102;2022-08-30T08:18:33;7.30;;;3.13;;
27889;SDS011;15238;49.082;9.102;2022-08-30T08:20:34;7.28;;;3.30;;
27889;SDS011;15238;49.082;9.102;2022-08-30T08:22:34;8.07;;;2.90;;
27889;SDS011;15238;49.082;9.102;2022-08-30T08:24:35;8.40;;;3.22;;
27889;SDS011;15238;49.082;9.102;2022-08-30T08:26:36;8.90;;;3.10;;
27889;SDS011;15238;49.082;9.102;2022-08-30T08:28:37;6.82;;;3.20;;
27889;SDS011;15238;49.082;9.102;2022-08-30T08:30:39;6.20;;;2.88;;
27889;SDS011;15238;49.082;9.102;2022-08-30T08:32:40;9.57;;;3.58;;
27889;SDS011;15238;49.082;9.102;2022-08-30T08:34:40;6.90;;;2.85;;
27889;SDS011;15238;49.082;9.102;2022-08-30T08:36:41;8.15;;;3.17;;
27889;SDS011;15238;49.082;9.102;2022-08-30T08:38:42;7.15;;;3.33;;
27889;SDS011;15238;49.082;9.102;2022-08-30T08:40:46;6.70;;;3.25;;
27889;SDS011;15238;49.082;9.102;2022-08-30T08:43:10;9.27;;;3.78;;
27889;SDS011;15238;49.082;9.102;2022-08-30T08:45:14;9.50;;;3.53;;
27889;SDS011;15238;49.082;9.102;2022-08-30T08:47:36;8.25;;;3.30;;
27889;SDS011;15238;49.082;9.102;2022-08-30T08:49:40;9.73;;;3.15;;
27889;SDS011;15238;49.082;9.102;2022-08-30T08:51:43;5.10;;;2.70;;
27889;SDS011;15238;49.082;9.102;2022-08-30T08:56:19;5.20;;;2.80;;
27889;SDS011;15238;49.082;9.102;2022-08-30T08:58:23;9.55;;;2.88;;
27889;SDS011;15238;49.082;9.102;2022-08-30T09:00:25;11.93;;;3.10;;
27889;SDS011;15238;49.082;9.102;2022-08-30T09:02:34;5.32;;;2.80;;
27889;SDS011;15238;49.082;9.102;2022-08-30T09:04:40;7.85;;;2.72;;
27889;SDS011;15238;49.082;9.102;2022-08-30T09:06:43;7.18;;;2.67;;
27889;SDS011;15238;49.082;9.102;2022-08-30T09:08:57;5.30;;;2.78;;
27889;SDS011;15238;49.082;9.102;2022-08-30T09:11:00;7.50;;;2.90;;
27889;SDS011;15238;49.082;9.102;2022-08-30T09:13:04;7.40;;;3.30;;
27889;SDS011;15238;49.082;9.102;2022-08-30T09:15:09;9.63;;;3.00;;
27889;SDS011;15238;49.082;9.102;2022-08-30T09:17:18;5.97;;;2.88;;
27889;SDS011;15238;49.082;9.102;2022-08-30T09:21:31;8.52;;;3.17;;
27889;SDS011;15238;49.082;9.102;2022-08-30T09:23:33;8.13;;;2.85;;
27889;SDS011;15238;49.082;9.102;2022-08-30T09:25:34;7.85;;;3.45;;
27889;SDS011;15238;49.082;9.102;2022-08-30T09:27:35;5.05;;;2.95;;
27889;SDS011;15238;49.082;9.102;2022-08-30T09:29:40;6.97;;;3.45;;
27889;SDS011;15238;49.082;9.102;2022-08-30T09:31:51;5.65;;;3.10;;
27889;SDS011;15238;49.082;9.102;2022-08-30T09:36:13;9.27;;;2.88;;
27889;SDS011;15238;49.082;9.102;2022-08-30T09:40:33;7.53;;;2.75;;
27889;SDS011;15238;49.082;9.102;2022-08-30T09:42:37;4.22;;;2.83;;
27889;SDS011;15238;49.082;9.102;2022-08-30T09:44:38;4.30;;;2.95;;
27889;SDS011;15238;49.082;9.102;2022-08-30T09:46:57;7.10;;;3.05;;
27889;SDS011;15238;49.082;9.102;2022-08-30T09:49:00;5.85;;;2.90;;
27889;SDS011;15238;49.082;9.102;2022-08-30T09:51:11;15.38;;;3.65;;
27889;SDS011;15238;49.082;9.102;2022-08-30T09:53:32;5.93;;;3.05;;
27889;SDS011;15238;49.082;9.102;2022-08-30T09:58:08;5.55;;;3.58;;
27889;SDS011;15238;49.082;9.102;2022-08-30T10:00:17;8.13;;;3.22;;
27889;SDS011;15238;49.082;9.102;2022-08-30T10:04:43;7.13;;;3.10;;
27889;SDS011;15238;49.082;9.102;2022-08-30T10:07:12;10.90;;;3.60;;
27889;SDS011;15238;49.082;9.102;2022-08-30T10:09:32;5.45;;;3.25;;
27889;SDS011;15238;49.082;9.102;2022-08-30T10:12:03;5.72;;;3.15;;
27889;SDS011;15238;49.082;9.102;2022-08-30T10:14:34;7.93;;;2.97;;
27889;SDS011;15238;49.082;9.102;2022-08-30T10:16:46;5.40;;;2.80;;
27889;SDS011;15238;49.082;9.102;2022-08-30T10:21:27;6.80;;;3.53;;
27889;SDS011;15238;49.082;9.102;2022-08-30T10:23:35;6.25;;;3.22;;
27889;SDS011;15238;49.082;9.102;2022-08-30T10:25:42;7.13;;;2.95;;
27889;SDS011;15238;49.082;9.102;2022-08-30T10:28:32;6.32;;;3.20;;
27889;SDS011;15238;49.082;9.102;2022-08-30T10:30:16;7.32;;;3.63;;
27889;SDS011;15238;49.082;9.102;2022-08-30T10:36:57;11.35;;;3.50;;
27889;SDS011;15238;49.082;9.102;2022-08-30T10:39:02;6.75;;;3.42;;
27889;SDS011;15238;49.082;9.102;2022-08-30T10:41:23;10.52;;;3.80;;
27889;SDS011;15238;49.082;9.102;2022-08-30T10:45:50;6.28;;;3.08;;
27889;SDS011;15238;49.082;9.102;2022-08-30T10:48:07;7.72;;;3.20;;
27889;SDS011;15238;49.082;9.102;2022-08-30T10:50:29;5.88;;;3.55;;
27889;SDS011;15238;49.082;9.102;2022-08-30T10:52:35;6.13;;;3.60;;
27889;SDS011;15238;49.082;9.102;2022-08-30T10:54:51;5.60;;;3.33;;
27889;SDS011;15238;49.082;9.102;2022-08-30T10:56:57;5.65;;;3.20;;
27889;SDS011;15238;49.082;9.102;2022-08-30T10:58:59;3.97;;;2.75;;
27889;SDS011;15238;49.082;9.102;2022-08-30T11:14:49;4.57;;;2.95;;
27889;SDS011;15238;49.082;9.102;2022-08-30T11:16:51;4.90;;;3.15;;
27889;SDS011;15238;49.082;9.102;2022-08-30T11:18:54;6.63;;;3.00;;
27889;SDS011;15238;49.082;9.102;2022-08-30T11:21:15;3.70;;;3.17;;
27889;SDS011;15238;49.082;9.102;2022-08-30T11:23:35;6.65;;;3.00;;
27889;SDS011;15238;49.082;9.102;2022-08-30T11:28:00;5.40;;;2.85;;
27889;SDS011;15238;49.082;9.102;2022-08-30T11:30:26;5.97;;;3.08;;
27889;SDS011;15238;49.082;9.102;2022-08-30T11:32:32;5.32;;;3.15;;
27889;SDS011;15238;49.082;9.102;2022-08-30T11:35:04;6.05;;;3.63;;
27889;SDS011;15238;49.082;9.102;2022-08-30T11:37:06;5.78;;;3.83;;
27889;SDS011;15238;49.082;9.102;2022-08-30T11:39:08;3.85;;;3.45;;
27889;SDS011;15238;49.082;9.102;2022-08-30T11:41:13;6.68;;;4.07;;
27889;SDS011;15238;49.082;9.102;2022-08-30T11:47:39;3.65;;;3.15;;
27889;SDS011;15238;49.082;9.102;2022-08-30T11:49:47;7.18;;;3.95;;
27889;SDS011;15238;49.082;9.102;2022-08-30T11:52:14;4.75;;;3.10;;
27889;SDS011;15238;49.082;9.102;2022-08-30T12:03:31;7.82;;;3.67;;
27889;SDS011;15238;49.082;9.102;2022-08-30T12:07:55;7.22;;;3.35;;
27889;SDS011;15238;49.082;9.102;2022-08-30T12:09:59;8.05;;;3.80;;
27889;SDS011;15238;49.082;9.102;2022-08-30T12:12:04;5.00;;;3.42;;
27889;SDS011;15238;49.082;9.102;2022-08-30T12:14:31;3.83;;;3.10;;
27889;SDS011;15238;49.082;9.102;2022-08-30T12:16:36;6.80;;;3.20;;
27889;SDS011;15238;49.082;9.102;2022-08-30T12:21:32;5.15;;;3.58;;
27889;SDS011;15238;49.082;9.102;2022-08-30T12:23:39;4.03;;;3.25;;
27889;SDS011;15238;49.082;9.102;2022-08-30T12:25:47;3.67;;;3.25;;
27889;SDS011;15238;49.082;9.102;2022-08-30T12:27:49;5.70;;;3.08;;
27889;SDS011;15238;49.082;9.102;2022-08-30T12:29:51;4.80;;;3.35;;
27889;SDS011;15238;49.082;9.102;2022-08-30T12:31:55;6.32;;;3.38;;
27889;SDS011;15238;49.082;9.102;2022-08-30T12:34:00;5.28;;;3.03;;
27889;SDS011;15238;49.082;9.102;2022-08-30T12:36:02;8.77;;;3.88;;
27889;SDS011;15238;49.082;9.102;2022-08-30T12:38:04;5.90;;;3.15;;
27889;SDS011;15238;49.082;9.102;2022-08-30T12:42:25;4.00;;;3.25;;
27889;SDS011;15238;49.082;9.102;2022-08-30T12:44:27;5.63;;;3.58;;
27889;SDS011;15238;49.082;9.102;2022-08-30T12:46:28;7.68;;;4.05;;
27889;SDS011;15238;49.082;9.102;2022-08-30T12:48:32;6.40;;;3.78;;
27889;SDS011;15238;49.082;9.102;2022-08-30T12:50:43;5.90;;;3.50;;
27889;SDS011;15238;49.082;9.102;2022-08-30T12:53:04;8.13;;;3.55;;
27889;SDS011;15238;49.082;9.102;2022-08-30T12:55:12;6.55;;;3.67;;
27889;SDS011;15238;49.082;9.102;2022-08-30T12:59:45;7.63;;;3.50;;
27889;SDS011;15238;49.082;9.102;2022-08-30T13:01:51;6.68;;;3.47;;
27889;SDS011;15238;49.082;9.102;2022-08-30T13:03:53;7.68;;;3.42;;
27889;SDS011;15238;49.082;9.102;2022-08-30T13:06:12;5.90;;;3.03;;
27889;SDS011;15238;49.082;9.102;2022-08-30T13:08:14;4.93;;;3.47;;
27889;SDS011;15238;49.082;9.102;2022-08-30T13:10:18;5.10;;;3.00;;
27889;SDS011;15238;49.082;9.102;2022-08-30T13:12:20;7.15;;;3.25;;
27889;SDS011;15238;49.082;9.102;2022-08-30T13:16:35;6.72;;;3.80;;
27889;SDS011;15238;49.082;9.102;2022-08-30T13:18:36;5.13;;;3.38;;
27889;SDS011;15238;49.082;9.102;2022-08-30T13:20:37;4.28;;;3.15;;
27889;SDS011;15238;49.082;9.102;2022-08-30T13:22:39;3.47;;;2.97;;
27889;SDS011;15238;49.082;9.102;2022-08-30T13:24:40;10.02;;;4.00;;
27889;SDS011;15238;49.082;9.102;2022-08-30T13:26:41;4.72;;;3.42;;
27889;SDS011;15238;49.082;9.102;2022-08-30T13:28:44;3.70;;;3.30;;
27889;SDS011;15238;49.082;9.102;2022-08-30T13:30:47;7.25;;;3.22;;
27889;SDS011;15238;49.082;9.102;2022-08-30T13:32:48;4.15;;;3.53;;